createdAt,value
2023-02-01T00:01:34.146Z,2.307434
2023-02-01T00:04:59.413Z,2.388
2023-02-01T00:08:24.671Z,2.347717
2023-02-01T00:11:49.945Z,2.408142
2023-02-01T00:15:15.154Z,2.337646
2023-02-01T00:18:40.408Z,2.297363
2023-02-01T00:22:05.644Z,2.267151
2023-02-01T00:25:30.896Z,2.247009
2023-02-01T00:28:56.233Z,2.196655
2023-02-01T00:32:21.404Z,2.196655
2023-02-01T00:35:46.649Z,2.337646
2023-02-01T00:39:11.897Z,2.307434
2023-02-01T00:42:37.187Z,2.226868
2023-02-01T00:46:02.534Z,2.267151
2023-02-01T00:49:27.719Z,2.297363
2023-02-01T00:52:52.988Z,2.277222
2023-02-01T00:56:18.235Z,2.267151
2023-02-01T00:59:43.495Z,2.267151
2023-02-01T01:03:08.808Z,2.307434
2023-02-01T01:06:33.993Z,2.37793
2023-02-01T01:09:59.229Z,2.337646
2023-02-01T01:13:24.435Z,2.418213
2023-02-01T01:16:49.679Z,2.418213
2023-02-01T01:20:14.945Z,2.488708
2023-02-01T01:23:40.129Z,2.589417
2023-02-01T01:27:05.316Z,2.639771
2023-02-01T01:30:30.587Z,2.6297
2023-02-01T01:33:55.679Z,2.518921
2023-02-01T01:37:20.847Z,2.559204
2023-02-01T01:40:46.013Z,2.458496
2023-02-01T01:44:11.205Z,2.448425
2023-02-01T01:47:36.382Z,2.488708
2023-02-01T01:51:01.582Z,2.408142
2023-02-01T01:54:26.841Z,2.448425
2023-02-01T01:57:52.031Z,2.478638
2023-02-01T02:01:17.277Z,2.539062
2023-02-01T02:04:42.547Z,2.518921
2023-02-01T02:08:07.793Z,2.478638
2023-02-01T02:11:33.043Z,2.488708
2023-02-01T02:14:58.290Z,2.478638
2023-02-01T02:18:23.533Z,2.488708
2023-02-01T02:21:48.772Z,2.539062
2023-02-01T02:25:14.029Z,2.589417
2023-02-01T02:28:39.294Z,2.6297
2023-02-01T02:32:04.532Z,2.690125
2023-02-01T02:35:29.769Z,2.690125
2023-02-01T02:38:55.037Z,2.710266
2023-02-01T02:42:20.301Z,2.559204
2023-02-01T02:45:45.578Z,2.528992
2023-02-01T02:49:10.822Z,2.539062
2023-02-01T02:52:36.043Z,2.589417
2023-02-01T02:56:01.308Z,2.639771
2023-02-01T02:59:26.552Z,2.690125
2023-02-01T03:02:51.906Z,2.6297
2023-02-01T03:06:17.149Z,2.659912
2023-02-01T03:09:42.385Z,2.690125
2023-02-01T03:13:07.676Z,2.740479
2023-02-01T03:16:33.046Z,2.740479
2023-02-01T03:19:58.204Z,2.710266
2023-02-01T03:23:23.478Z,2.6297
2023-02-01T03:26:48.835Z,2.559204
2023-02-01T03:30:14.004Z,2.418213
2023-02-01T03:33:39.282Z,2.357788
2023-02-01T03:37:04.576Z,2.37793
2023-02-01T03:40:29.844Z,2.337646
2023-02-01T03:43:55.096Z,2.357788
2023-02-01T03:47:20.323Z,2.347717
2023-02-01T03:50:45.593Z,2.277222
2023-02-01T03:54:13.671Z,2.226868
2023-02-01T03:57:38.911Z,2.307434
2023-02-01T04:01:04.222Z,2.408142
2023-02-01T04:04:29.430Z,2.478638
2023-02-01T04:07:54.651Z,2.408142
2023-02-01T04:11:19.887Z,2.307434
2023-02-01T04:14:45.110Z,2.347717
2023-02-01T04:18:10.348Z,2.236938
2023-02-01T04:21:35.566Z,2.226868
2023-02-01T04:25:00.740Z,2.226868
2023-02-01T04:28:26.005Z,2.307434
2023-02-01T04:31:51.343Z,2.408142
2023-02-01T04:35:16.557Z,2.428284
2023-02-01T04:38:43.140Z,2.478638
2023-02-01T04:42:08.500Z,2.518921
2023-02-01T04:45:33.701Z,2.408142
2023-02-01T04:48:58.826Z,2.448425
2023-02-01T04:52:23.965Z,2.458496
2023-02-01T04:55:49.124Z,2.528992
2023-02-01T04:59:14.314Z,2.458496
2023-02-01T05:02:39.498Z,2.528992
2023-02-01T05:06:04.614Z,2.539062
2023-02-01T05:09:29.820Z,2.609558
2023-02-01T05:12:54.954Z,2.659912
2023-02-01T05:16:20.131Z,2.720337
2023-02-01T05:19:45.306Z,2.780762
2023-02-01T05:23:10.442Z,2.770691
2023-02-01T05:26:35.666Z,2.710266
2023-02-01T05:30:00.845Z,2.659912
2023-02-01T05:33:26.014Z,2.639771
2023-02-01T05:36:51.200Z,2.6297
2023-02-01T05:40:16.393Z,2.659912
2023-02-01T05:43:41.563Z,2.6297
2023-02-01T05:47:06.751Z,2.589417
2023-02-01T05:50:31.923Z,2.428284
2023-02-01T05:53:57.192Z,2.488708
2023-02-01T05:57:22.309Z,2.569275
2023-02-01T06:00:50.119Z,2.478638
2023-02-01T06:04:15.351Z,2.528992
2023-02-01T06:07:40.594Z,2.609558
2023-02-01T06:11:05.833Z,2.488708
2023-02-01T06:14:30.947Z,2.458496
2023-02-01T06:17:56.116Z,2.518921
2023-02-01T06:21:21.290Z,2.609558
2023-02-01T06:24:46.455Z,2.659912
2023-02-01T06:28:11.640Z,2.659912
2023-02-01T06:31:36.898Z,2.539062
2023-02-01T06:35:01.956Z,2.518921
2023-02-01T06:38:27.097Z,2.569275
2023-02-01T06:41:52.263Z,2.6297
2023-02-01T06:45:17.449Z,2.589417
2023-02-01T06:48:42.590Z,2.599487
2023-02-01T06:52:07.761Z,2.609558
2023-02-01T06:55:32.916Z,2.539062
2023-02-01T06:58:58.094Z,2.6297
2023-02-01T07:02:23.326Z,2.710266
2023-02-01T07:05:48.487Z,2.669983
2023-02-01T07:09:13.667Z,2.720337
2023-02-01T07:12:38.823Z,2.669983
2023-02-01T07:16:04.018Z,2.669983
2023-02-01T07:19:29.198Z,2.770691
2023-02-01T07:22:54.322Z,2.770691
2023-02-01T07:26:19.532Z,2.750549
2023-02-01T07:29:44.676Z,2.720337
2023-02-01T07:33:09.855Z,2.780762
2023-02-01T07:36:35.034Z,2.780762
2023-02-01T07:40:00.168Z,2.871399
2023-02-01T07:43:25.325Z,2.851257
2023-02-01T07:46:50.522Z,2.921753
2023-02-01T07:50:15.709Z,2.992249
2023-02-01T07:53:41.004Z,3.052673
2023-02-01T07:57:06.187Z,3.103027
2023-02-01T08:00:31.459Z,2.921753
2023-02-01T08:03:56.700Z,2.921753
2023-02-01T08:07:21.901Z,3.002319
2023-02-01T08:10:47.097Z,3.062744
2023-02-01T08:14:12.258Z,2.972107
2023-02-01T08:17:37.403Z,2.931824
2023-02-01T08:21:02.581Z,2.851257
2023-02-01T08:24:27.769Z,2.851257
2023-02-01T08:27:53.058Z,3.052673
2023-02-01T08:31:18.261Z,3.052673
2023-02-01T08:34:43.298Z,3.052673
2023-02-01T08:38:08.566Z,3.082886
2023-02-01T08:41:33.819Z,3.606567
2023-02-01T08:44:59.071Z,4.049683
2023-02-01T08:48:24.314Z,4.079895
2023-02-01T08:51:49.523Z,4.150391
2023-02-01T08:55:14.799Z,4.14032
2023-02-01T08:58:40.004Z,3.727417
2023-02-01T09:02:05.176Z,3.445435
2023-02-01T09:05:40.766Z,3.465576
2023-02-01T09:08:55.552Z,3.314514
2023-02-01T09:12:20.741Z,3.415222
2023-02-01T09:15:45.972Z,3.51593
2023-02-01T09:19:27.289Z,3.576355
2023-02-01T09:22:36.240Z,3.505859
2023-02-01T09:26:01.425Z,3.445435
2023-02-01T09:29:26.610Z,3.505859
2023-02-01T09:32:51.795Z,3.596497
2023-02-01T09:36:17.033Z,3.38501
2023-02-01T09:39:42.255Z,3.26416
2023-02-01T09:43:07.471Z,3.26416
2023-02-01T09:46:32.678Z,3.294373
2023-02-01T09:49:57.893Z,3.294373
2023-02-01T09:53:23.160Z,3.395081
2023-02-01T09:56:48.411Z,3.354797
2023-02-01T10:00:13.684Z,3.334656
2023-02-01T10:03:39.025Z,3.445435
2023-02-01T10:07:04.228Z,3.475647
2023-02-01T10:10:29.555Z,3.576355
2023-02-01T10:13:54.796Z,3.505859
2023-02-01T10:17:20.053Z,3.505859
2023-02-01T10:20:45.277Z,3.425293
2023-02-01T10:24:17.553Z,3.505859
2023-02-01T10:27:35.766Z,3.596497
2023-02-01T10:31:01.123Z,3.505859
2023-02-01T10:34:26.370Z,3.465576
2023-02-01T10:37:51.640Z,3.596497
2023-02-01T10:41:16.918Z,3.757629
2023-02-01T10:44:42.258Z,3.697205
2023-02-01T10:48:07.510Z,3.576355
2023-02-01T10:51:32.770Z,3.314514
2023-02-01T10:54:58.032Z,3.26416
2023-02-01T10:58:23.243Z,3.324585
2023-02-01T11:01:48.639Z,3.38501
2023-02-01T11:05:13.789Z,3.364868
2023-02-01T11:08:39.008Z,3.314514
2023-02-01T11:12:04.240Z,3.284302
2023-02-01T11:15:29.467Z,3.284302
2023-02-01T11:18:54.751Z,3.395081
2023-02-01T11:22:19.973Z,3.546143
2023-02-01T11:25:45.222Z,3.747559
2023-02-01T11:29:10.467Z,3.717346
2023-02-01T11:32:35.748Z,3.858337
2023-02-01T11:36:01.118Z,3.757629
2023-02-01T11:39:26.242Z,3.606567
2023-02-01T11:42:51.462Z,3.717346
2023-02-01T11:46:16.710Z,3.616638
2023-02-01T11:49:41.924Z,3.546143
2023-02-01T11:53:07.191Z,3.677063
2023-02-01T11:56:32.380Z,3.747559
2023-02-01T11:59:57.621Z,3.828125
2023-02-01T12:03:22.961Z,3.828125
2023-02-01T12:06:48.066Z,3.787842
2023-02-01T12:10:13.343Z,3.858337
2023-02-01T12:13:38.589Z,3.868408
2023-02-01T12:17:03.871Z,3.757629
2023-02-01T12:20:29.707Z,3.838196
2023-02-01T12:23:54.943Z,3.858337
2023-02-01T12:27:20.233Z,3.868408
2023-02-01T12:30:45.524Z,3.828125
2023-02-01T12:34:10.808Z,3.747559
2023-02-01T12:37:36.012Z,3.687134
2023-02-01T12:41:01.232Z,3.727417
2023-02-01T12:44:26.500Z,3.797913
2023-02-01T12:47:51.715Z,3.858337
2023-02-01T12:51:16.981Z,3.878479
2023-02-01T12:54:42.222Z,3.878479
2023-02-01T12:58:07.506Z,3.777771
2023-02-01T13:01:32.784Z,3.717346
2023-02-01T13:04:57.958Z,3.757629
2023-02-01T13:08:23.192Z,3.777771
2023-02-01T13:11:48.446Z,3.646851
2023-02-01T13:15:13.715Z,3.606567
2023-02-01T13:18:38.992Z,3.566284
2023-02-01T13:22:04.199Z,3.51593
2023-02-01T13:25:29.457Z,3.495789
2023-02-01T13:28:54.782Z,3.546143
2023-02-01T13:32:20.023Z,3.546143
2023-02-01T13:35:45.335Z,3.546143
2023-02-01T13:39:10.591Z,3.465576
2023-02-01T13:42:35.875Z,3.536072
2023-02-01T13:46:01.142Z,3.697205
2023-02-01T13:49:26.428Z,3.616638
2023-02-01T13:52:51.715Z,3.757629
2023-02-01T13:56:16.998Z,3.757629
2023-02-01T13:59:42.238Z,3.656921
2023-02-01T14:03:10.159Z,3.697205
2023-02-01T14:06:35.445Z,3.687134
2023-02-01T14:10:00.759Z,3.878479
2023-02-01T14:13:25.939Z,3.969116
2023-02-01T14:16:51.277Z,3.838196
2023-02-01T14:20:16.627Z,3.979187
2023-02-01T14:23:41.960Z,3.928833
2023-02-01T14:27:07.230Z,3.787842
2023-02-01T14:30:32.541Z,3.717346
2023-02-01T15:05:39.171Z,3.505859
2023-02-01T15:09:04.401Z,3.475647
2023-02-01T15:12:29.706Z,3.38501
2023-02-01T15:16:00.902Z,3.395081
2023-02-01T15:19:26.144Z,3.334656
2023-02-01T15:22:51.476Z,3.354797
2023-02-01T15:26:16.726Z,3.324585
2023-02-01T15:29:41.964Z,3.314514
2023-02-01T15:33:07.196Z,3.354797
2023-02-01T15:36:32.415Z,3.143311
2023-02-01T15:39:57.781Z,3.233948
2023-02-01T15:43:23.012Z,3.244019
2023-02-01T15:46:48.300Z,3.203735
2023-02-01T15:50:13.454Z,3.13324
2023-02-01T15:53:38.717Z,3.13324
2023-02-01T15:57:03.977Z,3.183594
2023-02-01T16:00:29.190Z,3.082886
2023-02-01T16:03:54.466Z,3.153381
2023-02-01T16:07:20.513Z,3.032532
2023-02-01T16:10:45.750Z,2.992249
2023-02-01T16:14:11.097Z,3.13324
2023-02-01T16:17:36.276Z,3.153381
2023-02-01T16:21:01.551Z,3.203735
2023-02-01T16:24:26.927Z,3.153381
2023-02-01T16:27:52.064Z,3.203735
2023-02-01T16:31:17.528Z,3.284302
2023-02-01T16:34:42.593Z,3.284302
2023-02-01T16:38:07.889Z,3.38501
2023-02-01T16:41:33.181Z,3.314514
2023-02-01T16:44:58.453Z,3.284302
2023-02-01T16:48:23.749Z,3.203735
2023-02-01T16:51:48.998Z,3.213806
2023-02-01T16:55:14.269Z,3.244019
2023-02-01T16:58:39.491Z,3.284302
2023-02-01T17:02:04.773Z,3.203735
2023-02-01T17:05:30.090Z,3.113098
2023-02-01T17:08:55.335Z,3.13324
2023-02-01T17:12:20.566Z,3.13324
2023-02-01T17:15:45.836Z,3.082886
2023-02-01T17:19:11.067Z,3.032532
2023-02-01T17:22:36.350Z,2.951965
2023-02-01T17:26:01.654Z,3.052673
2023-02-01T17:29:26.931Z,3.113098
2023-02-01T17:32:52.195Z,3.082886
2023-02-01T17:36:17.567Z,3.13324
2023-02-01T17:39:42.985Z,3.082886
2023-02-01T17:43:08.188Z,3.052673
2023-02-01T17:46:33.454Z,3.032532
2023-02-01T17:49:58.723Z,3.032532
2023-02-01T17:53:24.065Z,3.082886
2023-02-01T17:56:49.374Z,3.103027
2023-02-01T18:00:14.656Z,3.002319
2023-02-01T18:03:39.965Z,2.992249
2023-02-01T18:07:05.267Z,2.972107
2023-02-01T18:10:30.526Z,2.992249
2023-02-01T18:13:55.871Z,2.992249
2023-02-01T18:17:21.164Z,3.002319
2023-02-01T18:20:46.420Z,3.022461
2023-02-01T18:24:11.758Z,3.13324
2023-02-01T18:27:36.967Z,3.173523
2023-02-01T18:31:02.408Z,3.334656
2023-02-01T18:34:27.468Z,3.415222
2023-02-01T18:37:52.761Z,3.656921
2023-02-01T18:41:18.096Z,3.646851
2023-02-01T18:44:43.313Z,3.606567
2023-02-01T18:48:08.566Z,3.536072
2023-02-01T18:51:33.832Z,3.475647
2023-02-01T18:55:00.282Z,3.576355
2023-02-01T18:58:24.331Z,3.606567
2023-02-01T19:01:49.647Z,3.596497
2023-02-01T19:05:14.874Z,3.656921
2023-02-01T19:08:40.127Z,3.677063
2023-02-01T19:12:05.346Z,3.606567
2023-02-01T19:15:30.673Z,3.616638
2023-02-01T19:18:55.787Z,3.475647
2023-02-01T19:22:21.086Z,3.576355
2023-02-01T19:25:46.294Z,3.606567
2023-02-01T19:29:11.576Z,3.656921
2023-02-01T19:32:36.845Z,3.727417
2023-02-01T19:36:02.118Z,3.777771
2023-02-01T19:39:27.385Z,3.697205
2023-02-01T19:42:52.585Z,3.566284
2023-02-01T19:46:17.883Z,3.425293
2023-02-01T19:49:43.103Z,3.415222
2023-02-01T19:53:08.362Z,3.203735
2023-02-01T19:56:33.699Z,2.951965
2023-02-01T19:59:58.931Z,2.770691
2023-02-01T20:03:24.331Z,2.6297
2023-02-01T20:06:49.589Z,2.528992
2023-02-01T20:10:14.880Z,2.488708
2023-02-01T20:13:40.102Z,2.458496
2023-02-01T20:17:05.347Z,2.478638
2023-02-01T20:20:30.606Z,2.297363
2023-02-01T20:23:55.871Z,2.277222
2023-02-01T20:27:21.996Z,2.37793
2023-02-01T20:30:47.267Z,2.307434
2023-02-01T20:34:12.435Z,2.297363
2023-02-01T20:37:37.733Z,2.388
2023-02-01T20:41:02.978Z,2.408142
2023-02-01T20:44:28.299Z,2.488708
2023-02-01T20:47:53.595Z,2.518921
2023-02-01T20:51:18.802Z,2.478638
2023-02-01T20:54:43.975Z,2.418213
2023-02-01T20:58:09.163Z,2.408142
2023-02-01T21:01:34.344Z,2.559204
2023-02-01T21:04:59.529Z,2.569275
2023-02-01T21:08:24.698Z,2.589417
2023-02-01T21:11:49.915Z,2.569275
2023-02-01T21:15:15.062Z,2.37793
2023-02-01T21:18:40.230Z,2.277222
2023-02-01T21:22:05.451Z,2.277222
2023-02-01T21:25:30.610Z,2.267151
2023-02-01T21:28:55.794Z,2.247009
2023-02-01T21:32:20.972Z,2.418213
2023-02-01T21:35:46.143Z,2.478638
2023-02-01T21:39:11.354Z,2.569275
2023-02-01T21:42:36.534Z,2.609558
2023-02-01T21:46:01.720Z,2.609558
2023-02-01T21:49:26.891Z,2.559204
2023-02-01T21:52:52.077Z,2.559204
2023-02-01T21:56:17.311Z,2.6297
2023-02-01T21:59:42.455Z,2.720337
2023-02-01T22:03:07.660Z,2.690125
2023-02-01T22:06:32.836Z,2.690125
2023-02-01T22:09:58.018Z,2.639771
2023-02-01T22:13:23.242Z,2.639771
2023-02-01T22:16:48.451Z,2.690125
2023-02-01T22:20:13.577Z,2.770691
2023-02-01T22:23:38.721Z,2.780762
2023-02-01T22:27:13.133Z,2.770691
2023-02-01T22:30:29.091Z,2.589417
2023-02-01T22:33:54.245Z,2.458496
2023-02-01T22:37:19.433Z,2.478638
2023-02-01T22:40:44.611Z,2.408142
2023-02-01T22:44:09.785Z,2.428284
2023-02-01T22:47:35.014Z,2.528992
2023-02-01T22:51:00.142Z,2.559204
2023-02-01T22:54:25.315Z,2.609558
2023-02-01T22:57:50.479Z,2.659912
2023-02-01T23:01:15.668Z,2.528992
2023-02-01T23:04:40.867Z,2.6297
2023-02-01T23:08:06.018Z,2.659912
2023-02-01T23:11:31.185Z,2.710266
2023-02-01T23:14:56.358Z,2.659912
2023-02-01T23:18:21.538Z,2.599487
2023-02-01T23:21:46.737Z,2.539062
2023-02-01T23:25:11.920Z,2.559204
2023-02-01T23:28:37.103Z,2.488708
2023-02-01T23:32:02.263Z,2.518921
2023-02-01T23:35:27.446Z,2.569275
2023-02-01T23:38:52.653Z,2.589417
2023-02-01T23:42:17.827Z,2.559204
2023-02-01T23:45:43.013Z,2.599487
2023-02-01T23:49:08.214Z,2.639771
2023-02-01T23:52:33.389Z,2.6297
2023-02-01T23:55:58.576Z,2.659912
2023-02-01T23:59:23.736Z,2.539062
